CSCL Long Beach — VRCZ7 — position and weather

sailwx.info

Track history (hours):
 
Tides and Currents Weather Stations Pressure Air Temp Water Temp Dewpoint Dewpoint Depression Visibility Wind Speed Wind Dir Waves Ship Positions

CSCL Long Beach

Last reported at 2015-Apr-02 00:08 UTC. Time now 2015-Apr-02 03:07 UTC.
Position N 29°35' E 122°28'.

Length 336.7 m; beam 45.6 m; draft 15 m.

Type: Cargo ship. MMSI: 477883900.

Date/timePositionNaut miles runAvg speedWind from/ knotsBaromVisibWave heightAir tempDewpointWater temp
2015-Apr-02 00:08N 29°35' E 122°28'1 2.0
2015-Apr-01 23:33N 29°34' E 122°29'1613.3
2015-Apr-01 22:21N 29°25' E 122°44'1214.2
2015-Apr-01 21:33N 29°16' E 122°35'28914.9
2015-Apr-01 02:09N 25°02' E 120°00'3116.1
2015-Apr-01 00:13N 24°39' E 119°37'1417.4
2015-Mar-31 23:24N 24°31' E 119°25'1416.4
2015-Mar-31 22:33N 24°23' E 119°12'3915.9
2015-Mar-31 20:07N 24°01' E 118°37'915.6
2015-Mar-31 19:33N 23°56' E 118°29'1615.3
2015-Mar-31 18:31N 23°46' E 118°15'1414.5
2015-Mar-31 17:33N 23°37' E 118°04'1914.5
2015-Mar-31 16:13N 23°24' E 117°49'21114.3
2015-Mar-31 01:33N 22°07' E 114°16'8 7.5
2015-Mar-31 00:29N 22°13' E 114°10'1010.7
2015-Mar-30 23:30N 22°22' E 114°04'1010.1
2015-Mar-30 22:34N 22°24' E 113°53'3 3.2
2015-Mar-30 21:30N 22°27' E 113°53'0 0.0
2015-Mar-30 20:30N 22°27' E 113°53'0 0.0
2015-Mar-30 19:30N 22°27' E 113°53'0 0.0
2015-Mar-30 18:30N 22°27' E 113°53'0 0.1
2015-Mar-30 17:30N 22°27' E 113°53'0 0.1
2015-Mar-30 16:30N 22°27' E 113°53'0 0.0
2015-Mar-30 15:30N 22°27' E 113°53'0 0.0
2015-Mar-30 14:30N 22°27' E 113°53'0 0.0
2015-Mar-30 13:30N 22°27' E 113°53'0 0.0
2015-Mar-30 12:24N 22°27' E 113°53'0 0.0
2015-Mar-30 11:30N 22°27' E 113°53'0 0.0
2015-Mar-30 10:30N 22°27' E 113°53'0 0.0
2015-Mar-30 09:34N 22°27' E 113°53'0 0.0
2015-Mar-30 08:33N 22°27' E 113°53'3 3.3
2015-Mar-30 07:33N 22°24' E 113°54'1110.2
2015-Mar-30 06:27N 22°20' E 114°05'1011.3
2015-Mar-30 05:33N 22°11' E 114°11'8 7.7
2015-Mar-30 04:33N 22°09' E 114°19'6 5.5
2015-Mar-30 03:27N 22°04' E 114°23'  
2015-Mar-26 04:30N 01°14' E 104°01'1111.2
2015-Mar-26 03:32N 01°10' E 103°51'  
Track history (hours):
 
Tides and Currents Weather Stations Pressure Air Temp Water Temp Dewpoint Dewpoint Depression Visibility Wind Speed Wind Dir Waves Ship Positions

CSCL Long Beach

Last reported at 2015-Apr-02 00:08 UTC. Time now 2015-Apr-02 03:07 UTC.
Position N 29°35' E 122°28'.

Length 336.7 m; beam 45.6 m; draft 15 m.

Type: Cargo ship. MMSI: 477883900.

Date/timePositionNaut miles runAvg speedWind from/ knotsBaromVisibWave heightAir tempDewpointWater temp
2015-Apr-02 00:08N 29°35' E 122°28'1 2.0
2015-Apr-01 23:33N 29°34' E 122°29'1613.3
2015-Apr-01 22:21N 29°25' E 122°44'1214.2
2015-Apr-01 21:33N 29°16' E 122°35'28914.9
2015-Apr-01 02:09N 25°02' E 120°00'3116.1
2015-Apr-01 00:13N 24°39' E 119°37'1417.4
2015-Mar-31 23:24N 24°31' E 119°25'1416.4
2015-Mar-31 22:33N 24°23' E 119°12'3915.9
2015-Mar-31 20:07N 24°01' E 118°37'915.6
2015-Mar-31 19:33N 23°56' E 118°29'1615.3
2015-Mar-31 18:31N 23°46' E 118°15'1414.5
2015-Mar-31 17:33N 23°37' E 118°04'1914.5
2015-Mar-31 16:13N 23°24' E 117°49'21114.3
2015-Mar-31 01:33N 22°07' E 114°16'8 7.5
2015-Mar-31 00:29N 22°13' E 114°10'1010.7
2015-Mar-30 23:30N 22°22' E 114°04'1010.1
2015-Mar-30 22:34N 22°24' E 113°53'3 3.2
2015-Mar-30 21:30N 22°27' E 113°53'0 0.0
2015-Mar-30 20:30N 22°27' E 113°53'0 0.0
2015-Mar-30 19:30N 22°27' E 113°53'0 0.0
2015-Mar-30 18:30N 22°27' E 113°53'0 0.1
2015-Mar-30 17:30N 22°27' E 113°53'0 0.1
2015-Mar-30 16:30N 22°27' E 113°53'0 0.0
2015-Mar-30 15:30N 22°27' E 113°53'0 0.0
2015-Mar-30 14:30N 22°27' E 113°53'0 0.0
2015-Mar-30 13:30N 22°27' E 113°53'0 0.0
2015-Mar-30 12:24N 22°27' E 113°53'0 0.0
2015-Mar-30 11:30N 22°27' E 113°53'0 0.0
2015-Mar-30 10:30N 22°27' E 113°53'0 0.0
2015-Mar-30 09:34N 22°27' E 113°53'0 0.0
2015-Mar-30 08:33N 22°27' E 113°53'3 3.3
2015-Mar-30 07:33N 22°24' E 113°54'1110.2
2015-Mar-30 06:27N 22°20' E 114°05'1011.3
2015-Mar-30 05:33N 22°11' E 114°11'8 7.7
2015-Mar-30 04:33N 22°09' E 114°19'6 5.5
2015-Mar-30 03:27N 22°04' E 114°23'  
2015-Mar-26 04:30N 01°14' E 104°01'1111.2
2015-Mar-26 03:32N 01°10' E 103°51'  

Dump ship's entire track history